sensor_id;sensor_type;location;lat;lon;timestamp;temperature;humidity
12089;DHT22;6107;49.078;8.578;2023-05-01T00:01:32;9.60;99.90
12089;DHT22;6107;49.078;8.578;2023-05-01T00:03:57;9.50;99.90
12089;DHT22;6107;49.078;8.578;2023-05-01T00:06:23;9.40;99.90
12089;DHT22;6107;49.078;8.578;2023-05-01T00:08:48;9.30;99.90
12089;DHT22;6107;49.078;8.578;2023-05-01T00:11:14;9.20;99.90
12089;DHT22;6107;49.078;8.578;2023-05-01T00:13:40;9.20;99.90
12089;DHT22;6107;49.078;8.578;2023-05-01T00:16:09;9.20;99.90
12089;DHT22;6107;49.078;8.578;2023-05-01T00:18:35;9.20;99.90
12089;DHT22;6107;49.078;8.578;2023-05-01T00:21:01;8.90;99.90
12089;DHT22;6107;49.078;8.578;2023-05-01T00:23:27;8.80;99.90
12089;DHT22;6107;49.078;8.578;2023-05-01T00:25:53;8.80;99.90
12089;DHT22;6107;49.078;8.578;2023-05-01T00:28:18;8.80;99.90
12089;DHT22;6107;49.078;8.578;2023-05-01T00:30:44;9.00;99.90
12089;DHT22;6107;49.078;8.578;2023-05-01T00:33:10;9.20;99.90
12089;DHT22;6107;49.078;8.578;2023-05-01T00:35:36;9.20;99.90
12089;DHT22;6107;49.078;8.578;2023-05-01T00:38:01;9.50;99.90
12089;DHT22;6107;49.078;8.578;2023-05-01T00:40:27;9.80;99.90
12089;DHT22;6107;49.078;8.578;2023-05-01T00:42:53;10.00;99.90
12089;DHT22;6107;49.078;8.578;2023-05-01T00:45:19;10.10;99.90
12089;DHT22;6107;49.078;8.578;2023-05-01T00:47:45;10.20;99.90
12089;DHT22;6107;49.078;8.578;2023-05-01T00:50:11;10.20;99.90
12089;DHT22;6107;49.078;8.578;2023-05-01T00:52:37;10.30;99.90
12089;DHT22;6107;49.078;8.578;2023-05-01T00:55:04;10.30;99.90
12089;DHT22;6107;49.078;8.578;2023-05-01T00:57:30;10.30;99.90
12089;DHT22;6107;49.078;8.578;2023-05-01T00:59:57;10.40;99.90
12089;DHT22;6107;49.078;8.578;2023-05-01T01:02:23;10.40;99.90
12089;DHT22;6107;49.078;8.578;2023-05-01T01:04:48;10.30;99.90
12089;DHT22;6107;49.078;8.578;2023-05-01T01:10:29;10.30;99.90
12089;DHT22;6107;49.078;8.578;2023-05-01T01:13:11;10.30;99.90
12089;DHT22;6107;49.078;8.578;2023-05-01T01:15:44;10.30;99.90
12089;DHT22;6107;49.078;8.578;2023-05-01T01:21:11;10.30;99.90
12089;DHT22;6107;49.078;8.578;2023-05-01T01:29:39;10.40;99.90
12089;DHT22;6107;49.078;8.578;2023-05-01T01:32:48;10.40;99.90
12089;DHT22;6107;49.078;8.578;2023-05-01T01:35:21;10.40;99.90
12089;DHT22;6107;49.078;8.578;2023-05-01T01:37:59;10.50;99.90
12089;DHT22;6107;49.078;8.578;2023-05-01T01:40:32;10.50;99.90
12089;DHT22;6107;49.078;8.578;2023-05-01T01:43:02;10.50;99.90
12089;DHT22;6107;49.078;8.578;2023-05-01T01:45:36;10.50;99.90
12089;DHT22;6107;49.078;8.578;2023-05-01T01:48:04;10.50;99.90
12089;DHT22;6107;49.078;8.578;2023-05-01T01:50:31;10.60;99.90
12089;DHT22;6107;49.078;8.578;2023-05-01T01:52:59;10.60;99.90
12089;DHT22;6107;49.078;8.578;2023-05-01T01:55:28;10.60;99.90
12089;DHT22;6107;49.078;8.578;2023-05-01T01:57:55;10.60;99.90
12089;DHT22;6107;49.078;8.578;2023-05-01T02:00:23;10.50;99.90
12089;DHT22;6107;49.078;8.578;2023-05-01T02:02:49;10.60;99.90
12089;DHT22;6107;49.078;8.578;2023-05-01T02:05:18;10.60;99.90
12089;DHT22;6107;49.078;8.578;2023-05-01T02:07:46;10.60;99.90
12089;DHT22;6107;49.078;8.578;2023-05-01T02:10:15;10.50;99.90
12089;DHT22;6107;49.078;8.578;2023-05-01T02:12:43;10.60;99.90
12089;DHT22;6107;49.078;8.578;2023-05-01T02:15:10;10.60;99.90
12089;DHT22;6107;49.078;8.578;2023-05-01T02:17:37;10.70;99.90
12089;DHT22;6107;49.078;8.578;2023-05-01T02:20:06;10.60;99.90
12089;DHT22;6107;49.078;8.578;2023-05-01T02:22:32;10.70;99.90
12089;DHT22;6107;49.078;8.578;2023-05-01T02:24:59;10.70;99.90
12089;DHT22;6107;49.078;8.578;2023-05-01T02:27:31;10.70;99.90
12089;DHT22;6107;49.078;8.578;2023-05-01T02:29:56;10.60;99.90
12089;DHT22;6107;49.078;8.578;2023-05-01T02:32:22;10.70;99.90
12089;DHT22;6107;49.078;8.578;2023-05-01T02:34:48;10.60;99.90
12089;DHT22;6107;49.078;8.578;2023-05-01T02:37:14;10.70;99.90
12089;DHT22;6107;49.078;8.578;2023-05-01T02:39:40;10.70;99.90
12089;DHT22;6107;49.078;8.578;2023-05-01T02:42:07;10.70;99.90
12089;DHT22;6107;49.078;8.578;2023-05-01T02:44:39;10.60;99.90
12089;DHT22;6107;49.078;8.578;2023-05-01T02:47:08;10.60;99.90
12089;DHT22;6107;49.078;8.578;2023-05-01T02:49:34;10.60;99.90
12089;DHT22;6107;49.078;8.578;2023-05-01T02:52:01;10.50;99.90
12089;DHT22;6107;49.078;8.578;2023-05-01T02:54:28;10.60;99.90
12089;DHT22;6107;49.078;8.578;2023-05-01T02:56:54;10.60;99.90
12089;DHT22;6107;49.078;8.578;2023-05-01T02:59:22;10.50;99.90
12089;DHT22;6107;49.078;8.578;2023-05-01T03:01:47;10.50;99.90
12089;DHT22;6107;49.078;8.578;2023-05-01T03:04:13;10.60;99.90
12089;DHT22;6107;49.078;8.578;2023-05-01T03:06:38;10.60;99.90
12089;DHT22;6107;49.078;8.578;2023-05-01T03:09:04;10.60;99.90
12089;DHT22;6107;49.078;8.578;2023-05-01T03:11:30;10.50;99.90
12089;DHT22;6107;49.078;8.578;2023-05-01T03:13:55;10.60;99.90
12089;DHT22;6107;49.078;8.578;2023-05-01T03:16:21;10.50;99.90
12089;DHT22;6107;49.078;8.578;2023-05-01T03:18:46;10.50;99.90
12089;DHT22;6107;49.078;8.578;2023-05-01T03:21:12;10.50;99.90
12089;DHT22;6107;49.078;8.578;2023-05-01T03:23:38;10.50;99.90
12089;DHT22;6107;49.078;8.578;2023-05-01T03:26:03;10.40;99.90
12089;DHT22;6107;49.078;8.578;2023-05-01T03:28:29;10.40;99.90
12089;DHT22;6107;49.078;8.578;2023-05-01T03:30:54;10.50;99.90
12089;DHT22;6107;49.078;8.578;2023-05-01T03:33:20;10.50;99.90
12089;DHT22;6107;49.078;8.578;2023-05-01T03:35:46;10.60;99.90
12089;DHT22;6107;49.078;8.578;2023-05-01T03:38:12;10.60;99.90
12089;DHT22;6107;49.078;8.578;2023-05-01T03:40:37;10.60;99.90
12089;DHT22;6107;49.078;8.578;2023-05-01T03:43:03;10.60;99.90
12089;DHT22;6107;49.078;8.578;2023-05-01T03:45:28;10.60;99.90
12089;DHT22;6107;49.078;8.578;2023-05-01T03:47:54;10.60;99.90
12089;DHT22;6107;49.078;8.578;2023-05-01T03:50:19;10.60;99.90
12089;DHT22;6107;49.078;8.578;2023-05-01T03:52:45;10.50;99.90
12089;DHT22;6107;49.078;8.578;2023-05-01T03:55:10;10.50;99.90
12089;DHT22;6107;49.078;8.578;2023-05-01T03:57:36;10.60;99.90
12089;DHT22;6107;49.078;8.578;2023-05-01T04:00:02;10.70;99.90
12089;DHT22;6107;49.078;8.578;2023-05-01T04:02:29;10.60;99.90
12089;DHT22;6107;49.078;8.578;2023-05-01T04:04:55;10.40;99.90
12089;DHT22;6107;49.078;8.578;2023-05-01T04:07:20;10.50;99.90
12089;DHT22;6107;49.078;8.578;2023-05-01T04:09:46;10.50;99.90
12089;DHT22;6107;49.078;8.578;2023-05-01T04:12:12;10.50;99.90
12089;DHT22;6107;49.078;8.578;2023-05-01T04:14:38;10.40;99.90
12089;DHT22;6107;49.078;8.578;2023-05-01T04:17:03;10.40;99.90
12089;DHT22;6107;49.078;8.578;2023-05-01T04:19:29;10.40;99.90
12089;DHT22;6107;49.078;8.578;2023-05-01T04:21:54;10.40;99.90
12089;DHT22;6107;49.078;8.578;2023-05-01T04:24:20;10.30;99.90
12089;DHT22;6107;49.078;8.578;2023-05-01T04:26:45;10.40;99.90
12089;DHT22;6107;49.078;8.578;2023-05-01T04:29:11;10.40;99.90
12089;DHT22;6107;49.078;8.578;2023-05-01T04:31:36;10.40;99.90
12089;DHT22;6107;49.078;8.578;2023-05-01T04:34:01;10.50;99.90
12089;DHT22;6107;49.078;8.578;2023-05-01T04:36:27;10.60;99.90
12089;DHT22;6107;49.078;8.578;2023-05-01T04:38:53;10.60;99.90
12089;DHT22;6107;49.078;8.578;2023-05-01T04:41:19;10.70;99.90
12089;DHT22;6107;49.078;8.578;2023-05-01T04:43:45;10.70;99.90
12089;DHT22;6107;49.078;8.578;2023-05-01T04:46:11;10.60;99.90
12089;DHT22;6107;49.078;8.578;2023-05-01T04:48:36;10.60;99.90
12089;DHT22;6107;49.078;8.578;2023-05-01T04:51:02;10.50;99.90
12089;DHT22;6107;49.078;8.578;2023-05-01T04:53:28;10.60;99.90
12089;DHT22;6107;49.078;8.578;2023-05-01T04:55:54;10.50;99.90
12089;DHT22;6107;49.078;8.578;2023-05-01T04:58:19;10.50;99.90
12089;DHT22;6107;49.078;8.578;2023-05-01T05:00:45;10.60;99.90
12089;DHT22;6107;49.078;8.578;2023-05-01T05:03:10;10.70;99.90
12089;DHT22;6107;49.078;8.578;2023-05-01T05:05:36;10.70;99.90
12089;DHT22;6107;49.078;8.578;2023-05-01T05:08:01;10.60;99.90
12089;DHT22;6107;49.078;8.578;2023-05-01T05:10:27;10.60;99.90
12089;DHT22;6107;49.078;8.578;2023-05-01T05:12:52;10.60;99.90
12089;DHT22;6107;49.078;8.578;2023-05-01T05:15:18;10.60;99.90
12089;DHT22;6107;49.078;8.578;2023-05-01T05:17:43;10.70;99.90
12089;DHT22;6107;49.078;8.578;2023-05-01T05:20:10;10.70;99.90
12089;DHT22;6107;49.078;8.578;2023-05-01T05:22:36;10.70;99.90
12089;DHT22;6107;49.078;8.578;2023-05-01T05:25:04;10.70;99.90
12089;DHT22;6107;49.078;8.578;2023-05-01T05:27:31;10.70;99.90
12089;DHT22;6107;49.078;8.578;2023-05-01T05:30:03;10.80;99.90
12089;DHT22;6107;49.078;8.578;2023-05-01T05:32:28;10.90;99.90
12089;DHT22;6107;49.078;8.578;2023-05-01T05:34:55;10.90;99.90
12089;DHT22;6107;49.078;8.578;2023-05-01T05:37:20;11.00;99.90
12089;DHT22;6107;49.078;8.578;2023-05-01T05:39:46;10.90;99.90
12089;DHT22;6107;49.078;8.578;2023-05-01T05:42:12;10.90;99.90
12089;DHT22;6107;49.078;8.578;2023-05-01T05:44:37;11.00;99.90
12089;DHT22;6107;49.078;8.578;2023-05-01T05:47:03;11.10;99.90
12089;DHT22;6107;49.078;8.578;2023-05-01T05:49:29;11.10;99.90
12089;DHT22;6107;49.078;8.578;2023-05-01T05:51:54;11.10;99.90
12089;DHT22;6107;49.078;8.578;2023-05-01T05:54:20;11.20;99.90
12089;DHT22;6107;49.078;8.578;2023-05-01T05:56:45;11.40;99.90
12089;DHT22;6107;49.078;8.578;2023-05-01T05:59:11;11.40;99.90
12089;DHT22;6107;49.078;8.578;2023-05-01T06:01:36;11.60;99.90
12089;DHT22;6107;49.078;8.578;2023-05-01T06:04:03;11.60;99.90
12089;DHT22;6107;49.078;8.578;2023-05-01T06:06:28;11.70;99.90
12089;DHT22;6107;49.078;8.578;2023-05-01T06:08:55;11.80;99.90
12089;DHT22;6107;49.078;8.578;2023-05-01T06:11:21;11.80;99.90
12089;DHT22;6107;49.078;8.578;2023-05-01T06:13:46;11.80;99.90
12089;DHT22;6107;49.078;8.578;2023-05-01T06:16:12;11.80;99.90
12089;DHT22;6107;49.078;8.578;2023-05-01T06:18:37;11.80;99.90
12089;DHT22;6107;49.078;8.578;2023-05-01T06:21:03;11.90;99.90
12089;DHT22;6107;49.078;8.578;2023-05-01T06:23:29;11.80;99.90
12089;DHT22;6107;49.078;8.578;2023-05-01T06:25:55;11.80;99.90
12089;DHT22;6107;49.078;8.578;2023-05-01T06:28:20;11.80;99.90
12089;DHT22;6107;49.078;8.578;2023-05-01T06:30:46;11.90;99.90
12089;DHT22;6107;49.078;8.578;2023-05-01T06:33:12;11.90;99.90
12089;DHT22;6107;49.078;8.578;2023-05-01T06:35:38;11.90;99.90
12089;DHT22;6107;49.078;8.578;2023-05-01T06:38:04;12.10;99.90
12089;DHT22;6107;49.078;8.578;2023-05-01T06:40:29;12.10;99.90
12089;DHT22;6107;49.078;8.578;2023-05-01T06:42:56;12.10;99.90
12089;DHT22;6107;49.078;8.578;2023-05-01T06:45:22;12.20;99.90
12089;DHT22;6107;49.078;8.578;2023-05-01T06:47:47;12.20;99.90
12089;DHT22;6107;49.078;8.578;2023-05-01T06:50:13;12.30;99.90
12089;DHT22;6107;49.078;8.578;2023-05-01T06:52:39;12.20;99.90
12089;DHT22;6107;49.078;8.578;2023-05-01T06:55:05;12.20;99.90
12089;DHT22;6107;49.078;8.578;2023-05-01T06:57:30;12.20;99.90
12089;DHT22;6107;49.078;8.578;2023-05-01T06:59:56;12.20;99.90
12089;DHT22;6107;49.078;8.578;2023-05-01T07:02:21;12.20;99.90
12089;DHT22;6107;49.078;8.578;2023-05-01T07:04:47;12.30;99.90
12089;DHT22;6107;49.078;8.578;2023-05-01T07:07:12;12.40;99.90
12089;DHT22;6107;49.078;8.578;2023-05-01T07:09:38;12.50;99.90
12089;DHT22;6107;49.078;8.578;2023-05-01T07:12:05;12.60;99.90
12089;DHT22;6107;49.078;8.578;2023-05-01T07:14:31;12.70;99.90
12089;DHT22;6107;49.078;8.578;2023-05-01T07:16:56;13.10;99.90
12089;DHT22;6107;49.078;8.578;2023-05-01T07:19:22;13.00;99.90
12089;DHT22;6107;49.078;8.578;2023-05-01T07:21:48;12.90;99.90
12089;DHT22;6107;49.078;8.578;2023-05-01T07:24:13;13.00;99.90
12089;DHT22;6107;49.078;8.578;2023-05-01T07:26:39;13.00;99.90
12089;DHT22;6107;49.078;8.578;2023-05-01T07:29:04;12.90;99.90
12089;DHT22;6107;49.078;8.578;2023-05-01T07:31:30;13.00;99.90
12089;DHT22;6107;49.078;8.578;2023-05-01T07:33:55;13.00;99.90
12089;DHT22;6107;49.078;8.578;2023-05-01T07:36:21;12.90;99.90
12089;DHT22;6107;49.078;8.578;2023-05-01T07:38:47;13.00;99.90
12089;DHT22;6107;49.078;8.578;2023-05-01T07:41:13;13.10;99.90
12089;DHT22;6107;49.078;8.578;2023-05-01T07:43:38;13.20;99.90
12089;DHT22;6107;49.078;8.578;2023-05-01T07:46:04;13.20;99.90
12089;DHT22;6107;49.078;8.578;2023-05-01T07:48:31;13.10;99.90
12089;DHT22;6107;49.078;8.578;2023-05-01T07:51:01;13.10;99.90
12089;DHT22;6107;49.078;8.578;2023-05-01T07:53:26;13.30;99.90
12089;DHT22;6107;49.078;8.578;2023-05-01T07:55:52;13.30;99.90
12089;DHT22;6107;49.078;8.578;2023-05-01T07:58:17;13.30;99.90
12089;DHT22;6107;49.078;8.578;2023-05-01T08:00:43;13.40;99.90
12089;DHT22;6107;49.078;8.578;2023-05-01T08:03:10;13.30;99.90
12089;DHT22;6107;49.078;8.578;2023-05-01T08:05:39;13.30;99.90
12089;DHT22;6107;49.078;8.578;2023-05-01T08:08:05;13.20;99.90
12089;DHT22;6107;49.078;8.578;2023-05-01T08:10:30;13.50;99.90
12089;DHT22;6107;49.078;8.578;2023-05-01T08:12:56;13.40;99.90
12089;DHT22;6107;49.078;8.578;2023-05-01T08:15:22;13.60;99.90
12089;DHT22;6107;49.078;8.578;2023-05-01T08:17:48;13.70;99.90
12089;DHT22;6107;49.078;8.578;2023-05-01T08:20:15;14.00;99.90
12089;DHT22;6107;49.078;8.578;2023-05-01T08:22:40;14.70;99.90
12089;DHT22;6107;49.078;8.578;2023-05-01T08:25:06;14.10;99.90
12089;DHT22;6107;49.078;8.578;2023-05-01T08:27:32;13.90;99.90
12089;DHT22;6107;49.078;8.578;2023-05-01T08:29:58;14.20;99.90
12089;DHT22;6107;49.078;8.578;2023-05-01T08:32:23;14.10;99.90
12089;DHT22;6107;49.078;8.578;2023-05-01T08:34:49;14.10;99.90
12089;DHT22;6107;49.078;8.578;2023-05-01T08:37:14;14.00;99.90
12089;DHT22;6107;49.078;8.578;2023-05-01T08:39:40;14.10;99.90
12089;DHT22;6107;49.078;8.578;2023-05-01T08:42:05;14.20;99.90
12089;DHT22;6107;49.078;8.578;2023-05-01T08:44:33;14.20;99.90
12089;DHT22;6107;49.078;8.578;2023-05-01T08:47:14;14.50;99.90
12089;DHT22;6107;49.078;8.578;2023-05-01T08:49:41;14.60;99.90
12089;DHT22;6107;49.078;8.578;2023-05-01T08:52:07;14.60;99.90
12089;DHT22;6107;49.078;8.578;2023-05-01T08:54:33;14.70;99.90
12089;DHT22;6107;49.078;8.578;2023-05-01T08:57:00;14.80;99.90
12089;DHT22;6107;49.078;8.578;2023-05-01T08:59:33;15.10;99.90
12089;DHT22;6107;49.078;8.578;2023-05-01T09:02:01;15.40;99.90
12089;DHT22;6107;49.078;8.578;2023-05-01T09:04:37;15.30;99.90
12089;DHT22;6107;49.078;8.578;2023-05-01T09:07:03;15.60;99.90
12089;DHT22;6107;49.078;8.578;2023-05-01T09:09:30;15.50;99.90
12089;DHT22;6107;49.078;8.578;2023-05-01T09:12:21;15.90;99.90
12089;DHT22;6107;49.078;8.578;2023-05-01T09:14:51;16.50;99.90
12089;DHT22;6107;49.078;8.578;2023-05-01T09:17:17;16.50;99.90
12089;DHT22;6107;49.078;8.578;2023-05-01T09:19:42;16.80;99.90
12089;DHT22;6107;49.078;8.578;2023-05-01T09:22:08;15.90;99.90
12089;DHT22;6107;49.078;8.578;2023-05-01T09:24:34;15.40;99.90
12089;DHT22;6107;49.078;8.578;2023-05-01T09:26:59;15.40;99.90
12089;DHT22;6107;49.078;8.578;2023-05-01T09:29:44;15.20;99.90
12089;DHT22;6107;49.078;8.578;2023-05-01T09:32:23;15.50;99.90
12089;DHT22;6107;49.078;8.578;2023-05-01T09:34:53;15.80;99.90
12089;DHT22;6107;49.078;8.578;2023-05-01T09:37:32;15.50;99.90
12089;DHT22;6107;49.078;8.578;2023-05-01T09:40:08;15.50;99.90
12089;DHT22;6107;49.078;8.578;2023-05-01T09:42:36;15.60;99.90
12089;DHT22;6107;49.078;8.578;2023-05-01T09:45:05;16.00;99.90
12089;DHT22;6107;49.078;8.578;2023-05-01T09:47:30;16.00;99.90
12089;DHT22;6107;49.078;8.578;2023-05-01T09:49:58;15.70;99.90
12089;DHT22;6107;49.078;8.578;2023-05-01T09:52:26;15.70;99.90
12089;DHT22;6107;49.078;8.578;2023-05-01T09:55:21;15.90;99.90
12089;DHT22;6107;49.078;8.578;2023-05-01T09:57:48;15.90;99.90
12089;DHT22;6107;49.078;8.578;2023-05-01T10:00:14;16.10;99.90
12089;DHT22;6107;49.078;8.578;2023-05-01T10:02:44;16.70;99.90
12089;DHT22;6107;49.078;8.578;2023-05-01T10:05:10;16.70;99.90
12089;DHT22;6107;49.078;8.578;2023-05-01T10:07:36;16.30;99.90
12089;DHT22;6107;49.078;8.578;2023-05-01T10:10:16;16.50;99.90
12089;DHT22;6107;49.078;8.578;2023-05-01T10:12:42;16.80;99.90
12089;DHT22;6107;49.078;8.578;2023-05-01T10:15:08;16.90;99.90
12089;DHT22;6107;49.078;8.578;2023-05-01T10:17:34;16.90;99.90
12089;DHT22;6107;49.078;8.578;2023-05-01T10:20:00;16.90;99.90
12089;DHT22;6107;49.078;8.578;2023-05-01T10:22:26;17.10;99.90
12089;DHT22;6107;49.078;8.578;2023-05-01T10:24:51;16.90;99.90
12089;DHT22;6107;49.078;8.578;2023-05-01T10:27:18;16.60;99.90
12089;DHT22;6107;49.078;8.578;2023-05-01T10:29:47;16.20;99.90
12089;DHT22;6107;49.078;8.578;2023-05-01T10:32:15;16.20;99.90
12089;DHT22;6107;49.078;8.578;2023-05-01T10:34:46;16.30;99.90
12089;DHT22;6107;49.078;8.578;2023-05-01T10:37:19;16.60;99.90
12089;DHT22;6107;49.078;8.578;2023-05-01T10:39:46;17.00;99.90
12089;DHT22;6107;49.078;8.578;2023-05-01T10:42:11;16.90;99.90
12089;DHT22;6107;49.078;8.578;2023-05-01T10:44:41;16.20;99.90
12089;DHT22;6107;49.078;8.578;2023-05-01T10:52:28;16.20;99.90
12089;DHT22;6107;49.078;8.578;2023-05-01T10:57:58;16.30;99.90
12089;DHT22;6107;49.078;8.578;2023-05-01T11:00:24;16.30;99.90
12089;DHT22;6107;49.078;8.578;2023-05-01T11:02:49;16.10;99.90
12089;DHT22;6107;49.078;8.578;2023-05-01T11:05:15;16.40;99.90
12089;DHT22;6107;49.078;8.578;2023-05-01T11:07:40;16.80;99.90
12089;DHT22;6107;49.078;8.578;2023-05-01T11:10:24;16.40;99.90
12089;DHT22;6107;49.078;8.578;2023-05-01T11:12:51;16.50;99.90
12089;DHT22;6107;49.078;8.578;2023-05-01T11:15:32;16.80;99.90
12089;DHT22;6107;49.078;8.578;2023-05-01T11:17:59;16.40;99.90
12089;DHT22;6107;49.078;8.578;2023-05-01T11:22:52;16.40;99.90
12089;DHT22;6107;49.078;8.578;2023-05-01T11:25:22;16.50;99.90
12089;DHT22;6107;49.078;8.578;2023-05-01T11:27:49;16.20;99.90
12089;DHT22;6107;49.078;8.578;2023-05-01T11:30:15;16.50;99.90
12089;DHT22;6107;49.078;8.578;2023-05-01T11:32:45;16.70;99.90
12089;DHT22;6107;49.078;8.578;2023-05-01T11:35:23;16.80;99.90
12089;DHT22;6107;49.078;8.578;2023-05-01T11:37:50;16.80;99.90
12089;DHT22;6107;49.078;8.578;2023-05-01T11:40:21;16.90;99.90
12089;DHT22;6107;49.078;8.578;2023-05-01T11:42:47;16.90;99.90
12089;DHT22;6107;49.078;8.578;2023-05-01T11:45:14;16.70;99.90
12089;DHT22;6107;49.078;8.578;2023-05-01T11:47:40;16.80;99.90
12089;DHT22;6107;49.078;8.578;2023-05-01T11:50:06;16.70;99.90
12089;DHT22;6107;49.078;8.578;2023-05-01T11:52:46;17.00;99.90
12089;DHT22;6107;49.078;8.578;2023-05-01T11:55:18;17.00;99.90
12089;DHT22;6107;49.078;8.578;2023-05-01T12:00:10;17.00;99.90
12089;DHT22;6107;49.078;8.578;2023-05-01T12:02:36;16.80;99.90
12089;DHT22;6107;49.078;8.578;2023-05-01T12:05:17;17.20;99.90
12089;DHT22;6107;49.078;8.578;2023-05-01T12:07:43;17.30;99.90
12089;DHT22;6107;49.078;8.578;2023-05-01T12:10:08;17.50;99.90
12089;DHT22;6107;49.078;8.578;2023-05-01T12:12:35;17.80;99.90
12089;DHT22;6107;49.078;8.578;2023-05-01T12:15:01;17.40;99.90
12089;DHT22;6107;49.078;8.578;2023-05-01T12:17:27;17.20;99.90
12089;DHT22;6107;49.078;8.578;2023-05-01T12:19:54;17.20;99.90
12089;DHT22;6107;49.078;8.578;2023-05-01T12:22:20;17.20;99.90
12089;DHT22;6107;49.078;8.578;2023-05-01T12:24:52;17.30;99.90
12089;DHT22;6107;49.078;8.578;2023-05-01T12:27:18;17.40;99.90
12089;DHT22;6107;49.078;8.578;2023-05-01T12:29:44;17.20;99.90
12089;DHT22;6107;49.078;8.578;2023-05-01T12:32:12;17.20;99.90
12089;DHT22;6107;49.078;8.578;2023-05-01T12:34:38;17.30;99.90
12089;DHT22;6107;49.078;8.578;2023-05-01T12:37:05;17.60;99.90
12089;DHT22;6107;49.078;8.578;2023-05-01T12:39:41;17.50;99.90
12089;DHT22;6107;49.078;8.578;2023-05-01T12:42:12;17.30;99.90
12089;DHT22;6107;49.078;8.578;2023-05-01T12:44:39;17.30;99.90
12089;DHT22;6107;49.078;8.578;2023-05-01T12:47:06;17.30;99.90
12089;DHT22;6107;49.078;8.578;2023-05-01T12:49:33;17.20;99.90
12089;DHT22;6107;49.078;8.578;2023-05-01T12:52:02;17.30;99.90
12089;DHT22;6107;49.078;8.578;2023-05-01T12:54:33;17.30;99.90
12089;DHT22;6107;49.078;8.578;2023-05-01T12:57:14;17.30;99.90
12089;DHT22;6107;49.078;8.578;2023-05-01T12:59:41;17.40;99.90
12089;DHT22;6107;49.078;8.578;2023-05-01T13:02:09;17.40;99.90
12089;DHT22;6107;49.078;8.578;2023-05-01T13:04:40;17.40;99.90
12089;DHT22;6107;49.078;8.578;2023-05-01T13:07:16;17.50;99.90
12089;DHT22;6107;49.078;8.578;2023-05-01T13:09:55;17.50;99.90
12089;DHT22;6107;49.078;8.578;2023-05-01T13:12:22;17.30;99.90
12089;DHT22;6107;49.078;8.578;2023-05-01T13:14:49;17.20;99.90
12089;DHT22;6107;49.078;8.578;2023-05-01T13:17:22;17.00;99.90
12089;DHT22;6107;49.078;8.578;2023-05-01T13:20:03;16.80;99.90
12089;DHT22;6107;49.078;8.578;2023-05-01T13:22:34;17.00;99.90
12089;DHT22;6107;49.078;8.578;2023-05-01T13:25:10;17.30;99.90
12089;DHT22;6107;49.078;8.578;2023-05-01T13:27:39;17.20;99.90
12089;DHT22;6107;49.078;8.578;2023-05-01T13:30:06;17.10;99.90
12089;DHT22;6107;49.078;8.578;2023-05-01T13:32:32;17.30;99.90
12089;DHT22;6107;49.078;8.578;2023-05-01T13:35:00;17.30;99.90
12089;DHT22;6107;49.078;8.578;2023-05-01T13:37:25;17.30;99.90
12089;DHT22;6107;49.078;8.578;2023-05-01T13:39:55;17.60;99.90
12089;DHT22;6107;49.078;8.578;2023-05-01T13:42:23;17.70;99.90
12089;DHT22;6107;49.078;8.578;2023-05-01T13:44:54;17.80;99.90
12089;DHT22;6107;49.078;8.578;2023-05-01T13:47:22;17.90;99.90
12089;DHT22;6107;49.078;8.578;2023-05-01T13:49:50;17.90;99.90
12089;DHT22;6107;49.078;8.578;2023-05-01T13:52:17;17.70;99.90
12089;DHT22;6107;49.078;8.578;2023-05-01T13:54:44;17.70;99.90
12089;DHT22;6107;49.078;8.578;2023-05-01T13:57:10;17.80;99.90
12089;DHT22;6107;49.078;8.578;2023-05-01T13:59:39;17.90;99.90
12089;DHT22;6107;49.078;8.578;2023-05-01T14:02:26;18.00;99.90
12089;DHT22;6107;49.078;8.578;2023-05-01T14:04:53;18.10;99.90
12089;DHT22;6107;49.078;8.578;2023-05-01T14:07:23;18.10;99.90
12089;DHT22;6107;49.078;8.578;2023-05-01T14:09:56;18.40;99.90
12089;DHT22;6107;49.078;8.578;2023-05-01T14:12:30;18.90;99.90
12089;DHT22;6107;49.078;8.578;2023-05-01T14:14:56;19.80;99.90
12089;DHT22;6107;49.078;8.578;2023-05-01T14:17:32;20.70;99.90
12089;DHT22;6107;49.078;8.578;2023-05-01T14:19:59;20.70;99.90
12089;DHT22;6107;49.078;8.578;2023-05-01T14:22:29;20.70;99.90
12089;DHT22;6107;49.078;8.578;2023-05-01T14:24:58;20.30;99.90
12089;DHT22;6107;49.078;8.578;2023-05-01T14:27:23;20.60;99.90
12089;DHT22;6107;49.078;8.578;2023-05-01T14:29:49;20.80;99.90
12089;DHT22;6107;49.078;8.578;2023-05-01T14:32:14;20.90;99.90
12089;DHT22;6107;49.078;8.578;2023-05-01T14:34:41;20.80;99.90
12089;DHT22;6107;49.078;8.578;2023-05-01T14:37:08;21.10;99.90
12089;DHT22;6107;49.078;8.578;2023-05-01T14:39:34;21.20;99.90
12089;DHT22;6107;49.078;8.578;2023-05-01T14:42:00;20.60;99.90
12089;DHT22;6107;49.078;8.578;2023-05-01T14:44:26;20.80;99.90
12089;DHT22;6107;49.078;8.578;2023-05-01T14:46:55;19.60;99.90
12089;DHT22;6107;49.078;8.578;2023-05-01T14:49:23;19.70;99.90
12089;DHT22;6107;49.078;8.578;2023-05-01T14:51:50;19.20;99.90
12089;DHT22;6107;49.078;8.578;2023-05-01T14:54:16;19.00;99.90
12089;DHT22;6107;49.078;8.578;2023-05-01T14:59:09;19.00;99.90
12089;DHT22;6107;49.078;8.578;2023-05-01T15:01:35;18.90;99.90
12089;DHT22;6107;49.078;8.578;2023-05-01T15:04:00;18.80;99.90
12089;DHT22;6107;49.078;8.578;2023-05-01T15:06:26;19.20;99.90
12089;DHT22;6107;49.078;8.578;2023-05-01T15:08:52;19.10;99.90
12089;DHT22;6107;49.078;8.578;2023-05-01T15:11:17;18.90;99.90
12089;DHT22;6107;49.078;8.578;2023-05-01T15:13:45;18.60;99.90
12089;DHT22;6107;49.078;8.578;2023-05-01T15:16:11;18.50;99.90
12089;DHT22;6107;49.078;8.578;2023-05-01T15:18:37;18.60;99.90
12089;DHT22;6107;49.078;8.578;2023-05-01T15:21:03;18.80;99.90
12089;DHT22;6107;49.078;8.578;2023-05-01T15:23:29;19.10;99.90
12089;DHT22;6107;49.078;8.578;2023-05-01T15:25:56;19.30;99.90
12089;DHT22;6107;49.078;8.578;2023-05-01T15:28:22;19.40;99.90
12089;DHT22;6107;49.078;8.578;2023-05-01T15:30:49;19.40;99.90
12089;DHT22;6107;49.078;8.578;2023-05-01T15:33:16;19.20;99.90
12089;DHT22;6107;49.078;8.578;2023-05-01T15:35:42;19.50;99.90
12089;DHT22;6107;49.078;8.578;2023-05-01T15:38:08;19.60;99.90
12089;DHT22;6107;49.078;8.578;2023-05-01T15:40:33;19.30;99.90
12089;DHT22;6107;49.078;8.578;2023-05-01T15:43:00;19.50;99.90
12089;DHT22;6107;49.078;8.578;2023-05-01T15:45:26;19.40;99.90
12089;DHT22;6107;49.078;8.578;2023-05-01T15:47:52;19.40;99.90
12089;DHT22;6107;49.078;8.578;2023-05-01T15:50:17;19.30;99.90
12089;DHT22;6107;49.078;8.578;2023-05-01T15:52:43;19.50;99.90
12089;DHT22;6107;49.078;8.578;2023-05-01T15:55:10;19.20;99.90
12089;DHT22;6107;49.078;8.578;2023-05-01T15:57:35;19.40;99.90
12089;DHT22;6107;49.078;8.578;2023-05-01T16:00:01;19.00;99.90
12089;DHT22;6107;49.078;8.578;2023-05-01T16:02:30;18.80;99.90
12089;DHT22;6107;49.078;8.578;2023-05-01T16:04:57;18.60;99.90
12089;DHT22;6107;49.078;8.578;2023-05-01T16:07:23;18.50;99.90
12089;DHT22;6107;49.078;8.578;2023-05-01T16:09:48;18.70;99.90
12089;DHT22;6107;49.078;8.578;2023-05-01T16:12:14;18.80;99.90
12089;DHT22;6107;49.078;8.578;2023-05-01T16:14:40;18.50;99.90
12089;DHT22;6107;49.078;8.578;2023-05-01T16:17:06;18.70;99.90